Time;durP1;ratioP1;P1;durP2;ratioP2;P2;SDS_P1;SDS_P2;PMS_P1;PMS_P2;Temp;Humidity;BMP_temperature;BMP_pressure;BME280_temperature;BME280_humidity;BME280_pressure;Samples;Min_cycle;Max_cycle;Signal;HPM_P1;HPM_P2
2023/04/11 00:01:11;;;;;;;11.45;7.43;;;12.50;48.20;;;;;;5054420;28;20025;-71
2023/04/11 00:03:37;;;;;;;10.23;7.40;;;12.40;48.20;;;;;;5036026;28;20025;-72
2023/04/11 00:06:04;;;;;;;13.57;7.50;;;12.40;48.30;;;;;;5053085;28;20104;-71
2023/04/11 00:08:29;;;;;;;10.57;7.10;;;12.30;48.40;;;;;;5052250;28;20041;-72
2023/04/11 00:10:55;;;;;;;12.75;7.38;;;12.30;48.30;;;;;;5052302;28;20028;-70
2023/04/11 00:13:22;;;;;;;9.77;6.82;;;12.30;48.90;;;;;;5034318;28;20033;-73
2023/04/11 00:15:52;;;;;;;9.75;7.18;;;12.20;48.60;;;;;;5034396;28;20456;-72
2023/04/11 00:18:18;;;;;;;9.93;6.90;;;12.20;48.60;;;;;;5034365;28;20040;-72
2023/04/11 00:20:44;;;;;;;9.15;6.68;;;12.10;48.60;;;;;;5052502;28;20036;-72
2023/04/11 00:23:11;;;;;;;12.07;6.38;;;12.10;49.10;;;;;;5052456;28;20029;-71
2023/04/11 00:25:37;;;;;;;9.15;6.32;;;12.10;49.20;;;;;;5052140;28;20428;-72
2023/04/11 00:28:03;;;;;;;8.85;6.57;;;12.10;49.40;;;;;;5052005;28;20041;-71
2023/04/11 00:30:29;;;;;;;10.00;6.43;;;12.00;49.40;;;;;;5052254;28;20509;-71
2023/04/11 00:32:54;;;;;;;9.07;6.53;;;12.00;49.20;;;;;;5052121;28;20037;-72
2023/04/11 00:35:20;;;;;;;9.00;6.22;;;12.00;49.50;;;;;;5034426;28;20021;-72
2023/04/11 00:37:48;;;;;;;8.48;6.30;;;12.00;49.60;;;;;;5051972;28;20040;-72
2023/04/11 00:40:14;;;;;;;9.63;6.72;;;12.00;49.30;;;;;;5052128;28;20029;-72
2023/04/11 00:42:40;;;;;;;10.98;6.78;;;12.00;49.00;;;;;;5052009;28;20055;-72
2023/04/11 00:45:06;;;;;;;10.10;6.72;;;12.00;49.10;;;;;;5052439;28;20024;-72
2023/04/11 00:47:33;;;;;;;9.48;6.65;;;12.00;49.50;;;;;;5053266;28;20019;-72
2023/04/11 00:49:59;;;;;;;9.90;6.70;;;12.00;49.30;;;;;;5052155;28;20051;-71
2023/04/11 00:52:25;;;;;;;10.77;7.07;;;12.00;49.30;;;;;;5052080;28;20488;-71
2023/04/11 00:54:51;;;;;;;9.55;6.80;;;11.90;49.60;;;;;;5051724;28;20060;-72
2023/04/11 00:57:16;;;;;;;10.20;6.60;;;11.90;49.50;;;;;;5051871;28;20025;-71
2023/04/11 00:59:47;;;;;;;12.63;7.10;;;11.90;49.90;;;;;;5033866;28;20375;-71
2023/04/11 01:02:13;;;;;;;9.80;6.50;;;11.90;49.80;;;;;;5051782;28;20021;-71
2023/04/11 01:04:39;;;;;;;9.07;6.43;;;11.90;49.90;;;;;;5051880;28;20437;-72
2023/04/11 01:07:07;;;;;;;9.95;6.72;;;11.90;49.80;;;;;;5051724;28;20100;-72
2023/04/11 01:09:35;;;;;;;9.75;6.90;;;11.70;49.90;;;;;;5033676;28;20390;-71
2023/04/11 01:12:02;;;;;;;11.10;7.32;;;11.70;50.20;;;;;;5051550;28;20025;-72
2023/04/11 01:14:28;;;;;;;10.90;7.03;;;11.60;50.40;;;;;;5051977;28;20018;-72
2023/04/11 01:16:55;;;;;;;8.52;6.78;;;11.60;50.60;;;;;;5055669;28;20025;-71
2023/04/11 01:19:27;;;;;;;9.60;6.97;;;11.50;50.50;;;;;;5055479;28;20108;-72
2023/04/11 01:21:56;;;;;;;10.05;7.20;;;11.50;50.90;;;;;;5055467;28;20137;-72
2023/04/11 01:24:22;;;;;;;10.05;6.72;;;11.50;50.90;;;;;;5055679;28;20506;-72
2023/04/11 01:26:48;;;;;;;9.02;6.63;;;11.40;50.90;;;;;;5056176;28;20028;-71
2023/04/11 01:29:13;;;;;;;9.20;6.50;;;11.40;50.90;;;;;;5055865;28;20032;-71
2023/04/11 01:31:39;;;;;;;8.93;6.50;;;11.40;51.30;;;;;;5056642;28;20017;-72
2023/04/11 01:34:06;;;;;;;8.85;6.25;;;11.30;51.20;;;;;;5056430;28;20059;-71
2023/04/11 01:36:32;;;;;;;9.85;6.75;;;11.30;51.10;;;;;;5037524;28;20486;-72
2023/04/11 01:38:57;;;;;;;9.60;6.25;;;11.20;51.40;;;;;;5055246;28;20049;-72
2023/04/11 01:41:28;;;;;;;11.75;7.68;;;11.20;51.30;;;;;;5055024;28;20024;-71
2023/04/11 01:43:54;;;;;;;10.95;6.43;;;11.20;51.40;;;;;;5037425;28;20029;-71
2023/04/11 01:46:21;;;;;;;8.55;6.40;;;11.10;51.40;;;;;;5055168;28;20426;-71
2023/04/11 01:48:49;;;;;;;8.65;6.43;;;11.10;51.70;;;;;;5054997;28;20052;-70
2023/04/11 01:51:14;;;;;;;10.02;6.25;;;11.10;51.60;;;;;;5055083;28;20032;-72
2023/04/11 01:53:40;;;;;;;8.57;5.80;;;11.00;51.60;;;;;;5054906;28;20033;-71
2023/04/11 01:56:06;;;;;;;9.90;6.40;;;11.10;51.80;;;;;;5054713;28;20100;-71
2023/04/11 01:58:32;;;;;;;8.95;6.80;;;11.00;51.80;;;;;;5054972;28;20033;-72
2023/04/11 02:00:58;;;;;;;9.00;6.30;;;11.00;51.80;;;;;;5055098;28;20542;-72
2023/04/11 02:03:24;;;;;;;10.35;6.28;;;11.00;51.80;;;;;;5055163;28;20383;-73
2023/04/11 02:05:49;;;;;;;10.55;6.60;;;11.00;51.60;;;;;;5037288;28;20020;-74
2023/04/11 02:08:15;;;;;;;8.93;6.70;;;11.00;51.70;;;;;;5054808;28;20037;-71
2023/04/11 02:10:41;;;;;;;9.57;5.93;;;11.00;51.80;;;;;;5055025;28;20024;-72
2023/04/11 02:13:06;;;;;;;10.55;6.63;;;11.00;51.90;;;;;;5054826;28;20029;-72
2023/04/11 02:15:32;;;;;;;10.20;6.68;;;10.90;51.80;;;;;;5054430;28;20022;-71
2023/04/11 02:17:59;;;;;;;8.52;6.10;;;10.90;51.80;;;;;;5054671;28;20032;-71
2023/04/11 02:20:24;;;;;;;9.63;6.53;;;10.90;51.90;;;;;;5055141;28;20047;-72
2023/04/11 02:22:50;;;;;;;10.45;7.00;;;10.90;51.90;;;;;;5054847;28;20112;-71
2023/04/11 02:25:15;;;;;;;9.82;6.57;;;10.80;51.80;;;;;;5054442;28;20032;-71
2023/04/11 02:27:41;;;;;;;8.93;6.60;;;10.80;51.90;;;;;;5053701;28;20037;-71
2023/04/11 02:30:07;;;;;;;9.88;7.22;;;10.70;52.00;;;;;;5054587;28;20021;-71
2023/04/11 02:32:34;;;;;;;8.68;6.35;;;10.70;52.10;;;;;;5054229;28;20112;-72
2023/04/11 02:35:00;;;;;;;10.68;6.90;;;10.70;52.10;;;;;;5036454;28;20032;-72
2023/04/11 02:37:26;;;;;;;10.07;6.80;;;10.70;52.20;;;;;;5054015;28;20103;-71
2023/04/11 02:39:53;;;;;;;9.95;6.40;;;10.60;51.90;;;;;;5054040;28;20424;-72
2023/04/11 02:42:19;;;;;;;8.93;6.22;;;10.60;52.00;;;;;;5054197;28;20501;-72
2023/04/11 02:44:45;;;;;;;9.35;6.53;;;10.50;52.10;;;;;;5054258;28;20044;-71
2023/04/11 02:47:10;;;;;;;10.02;6.60;;;10.60;52.00;;;;;;5054056;28;20025;-72
2023/04/11 02:49:36;;;;;;;10.30;7.45;;;10.60;52.00;;;;;;5036198;28;20041;-71
2023/04/11 02:52:02;;;;;;;9.55;6.50;;;10.60;52.00;;;;;;5054243;28;20017;-72
2023/04/11 02:54:28;;;;;;;9.77;6.25;;;10.70;52.00;;;;;;5053866;28;20102;-72
2023/04/11 02:56:55;;;;;;;8.70;6.80;;;10.70;52.20;;;;;;5054070;28;20553;-72
2023/04/11 02:59:21;;;;;;;9.15;6.50;;;10.80;52.20;;;;;;5054494;28;20031;-73
2023/04/11 03:01:46;;;;;;;11.95;7.13;;;10.70;52.10;;;;;;5053952;28;20025;-72
2023/04/11 03:04:12;;;;;;;10.50;6.38;;;10.70;52.10;;;;;;5053960;28;20033;-71
2023/04/11 03:06:38;;;;;;;9.32;6.78;;;10.60;52.40;;;;;;5053667;28;20017;-71
2023/04/11 03:09:04;;;;;;;9.23;6.90;;;10.40;52.60;;;;;;5053788;28;20060;-72
2023/04/11 03:11:30;;;;;;;8.63;6.28;;;10.40;52.60;;;;;;5053594;28;20478;-72
2023/04/11 03:13:56;;;;;;;9.55;6.85;;;10.30;52.50;;;;;;5053606;28;20024;-71
2023/04/11 03:16:21;;;;;;;10.95;7.65;;;10.30;52.80;;;;;;5053680;28;20060;-72
2023/04/11 03:18:47;;;;;;;9.10;6.93;;;10.30;52.80;;;;;;5053177;28;20017;-72
2023/04/11 03:21:13;;;;;;;11.38;7.00;;;10.30;52.80;;;;;;5053481;28;20111;-70
2023/04/11 03:23:39;;;;;;;8.77;7.05;;;10.40;52.80;;;;;;5053392;28;20021;-72
2023/04/11 03:26:05;;;;;;;11.13;7.07;;;10.40;52.70;;;;;;5035476;28;20071;-70
2023/04/11 03:28:31;;;;;;;10.20;7.13;;;10.40;52.70;;;;;;5053078;28;20064;-70
2023/04/11 03:30:56;;;;;;;8.60;6.53;;;10.40;52.70;;;;;;5053285;28;20061;-72
2023/04/11 03:33:22;;;;;;;11.57;6.47;;;10.30;52.80;;;;;;5053528;28;20373;-73
2023/04/11 03:35:48;;;;;;;10.55;7.13;;;10.20;52.90;;;;;;5053221;28;20029;-72
2023/04/11 03:38:14;;;;;;;9.45;6.90;;;10.20;52.90;;;;;;5052003;28;20116;-71
2023/04/11 03:40:40;;;;;;;9.25;6.78;;;10.20;53.00;;;;;;5035169;28;20467;-72
2023/04/11 03:43:05;;;;;;;10.63;7.90;;;10.30;52.90;;;;;;5052966;28;20053;-72
2023/04/11 03:45:31;;;;;;;10.43;7.55;;;10.30;52.90;;;;;;5052888;28;20017;-72
2023/04/11 03:47:57;;;;;;;8.80;6.63;;;10.30;52.90;;;;;;5052867;28;20067;-71
2023/04/11 03:50:23;;;;;;;10.25;7.30;;;10.30;53.00;;;;;;5052805;28;20035;-71
2023/04/11 03:52:48;;;;;;;10.43;6.95;;;10.40;53.00;;;;;;5052798;28;20028;-72
2023/04/11 03:55:14;;;;;;;12.25;7.38;;;10.30;52.80;;;;;;5034805;28;20033;-72
2023/04/11 03:57:40;;;;;;;9.70;7.00;;;10.30;53.00;;;;;;5052737;28;20021;-72
2023/04/11 04:00:06;;;;;;;13.82;8.02;;;10.30;53.20;;;;;;5052539;28;20548;-71
2023/04/11 04:02:32;;;;;;;10.32;7.18;;;10.20;53.20;;;;;;5052658;28;20393;-71
2023/04/11 04:04:58;;;;;;;14.60;7.38;;;10.20;53.50;;;;;;5052513;28;20013;-72
2023/04/11 04:07:24;;;;;;;11.23;6.57;;;10.30;53.10;;;;;;5052845;28;20033;-71
2023/04/11 04:09:51;;;;;;;10.38;6.70;;;10.30;52.90;;;;;;5052345;28;20114;-72
2023/04/11 04:12:17;;;;;;;10.27;7.43;;;10.30;53.00;;;;;;5052639;28;20025;-71
2023/04/11 04:14:43;;;;;;;11.38;7.20;;;10.30;53.00;;;;;;5052481;28;20029;-71
2023/04/11 04:17:09;;;;;;;10.13;7.35;;;10.30;53.00;;;;;;5052406;28;20100;-71
2023/04/11 04:19:35;;;;;;;12.73;7.47;;;10.30;53.10;;;;;;5034492;28;20044;-72
2023/04/11 04:22:01;;;;;;;10.75;7.28;;;10.30;53.10;;;;;;5052325;28;20391;-72
2023/04/11 04:24:26;;;;;;;11.15;8.05;;;10.20;53.50;;;;;;5034349;28;20029;-72
2023/04/11 04:26:52;;;;;;;10.90;8.05;;;10.20;53.40;;;;;;5052365;28;20100;-71
2023/04/11 04:29:18;;;;;;;10.18;7.78;;;10.10;53.60;;;;;;5052182;28;20063;-71
2023/04/11 04:31:51;;;;;;;11.32;8.00;;;10.10;54.00;;;;;;5052273;28;20045;-71
2023/04/11 04:34:20;;;;;;;11.88;8.57;;;10.00;53.80;;;;;;5034248;28;20035;-73
2023/04/11 04:36:46;;;;;;;13.90;8.90;;;10.10;54.10;;;;;;5051953;28;20021;-71
2023/04/11 04:39:16;;;;;;;13.50;9.50;;;10.10;53.80;;;;;;5051788;28;20127;-71
2023/04/11 04:42:00;;;;;;;15.60;9.32;;;10.10;54.20;;;;;;5051836;28;20115;-71
2023/04/11 04:44:26;;;;;;;12.40;8.90;;;10.10;54.40;;;;;;5051815;28;20029;-72
2023/04/11 04:46:56;;;;;;;15.38;9.02;;;10.00;54.10;;;;;;5051754;28;20036;-71
2023/04/11 04:49:22;;;;;;;14.77;9.40;;;10.00;54.10;;;;;;5051622;28;20037;-72
2023/04/11 04:51:48;;;;;;;12.07;9.02;;;10.00;54.30;;;;;;5051870;28;20379;-71
2023/04/11 04:54:17;;;;;;;13.38;8.73;;;10.00;54.30;;;;;;5033642;28;20025;-71
2023/04/11 04:56:43;;;;;;;14.10;9.60;;;10.00;54.30;;;;;;5033775;28;20017;-72
2023/04/11 04:59:13;;;;;;;11.93;9.05;;;10.00;54.80;;;;;;5052137;28;20502;-71
2023/04/11 05:01:39;;;;;;;12.43;8.90;;;10.00;54.30;;;;;;5051660;28;20025;-72
2023/04/11 05:04:04;;;;;;;16.27;8.73;;;10.10;54.10;;;;;;5051787;28;20113;-71
2023/04/11 05:06:31;;;;;;;11.43;8.85;;;10.10;54.10;;;;;;5033819;28;20451;-72
2023/04/11 05:08:58;;;;;;;13.35;9.02;;;10.10;53.90;;;;;;5051852;28;20102;-73
2023/04/11 05:11:25;;;;;;;14.30;8.98;;;10.10;53.90;;;;;;5051885;28;20021;-71
2023/04/11 05:13:51;;;;;;;16.05;9.05;;;10.20;54.20;;;;;;5051556;28;20032;-71
2023/04/11 05:16:17;;;;;;;16.65;9.10;;;10.20;54.20;;;;;;5051733;28;20446;-71
2023/04/11 05:18:43;;;;;;;13.93;8.75;;;10.10;53.70;;;;;;5051406;28;20036;-71
2023/04/11 05:21:09;;;;;;;12.25;8.93;;;10.20;53.80;;;;;;5051578;28;20151;-73
2023/04/11 05:23:36;;;;;;;12.40;8.52;;;10.10;53.70;;;;;;5051465;28;20025;-72
2023/04/11 05:26:02;;;;;;;11.65;7.55;;;10.10;53.80;;;;;;5051644;28;20025;-72
2023/04/11 05:28:30;;;;;;;13.93;9.10;;;10.20;53.90;;;;;;5033757;28;20024;-72
2023/04/11 05:30:55;;;;;;;15.25;8.95;;;10.20;54.20;;;;;;5051819;28;20094;-72
2023/04/11 05:33:23;;;;;;;12.18;8.27;;;10.20;53.80;;;;;;5054167;28;20017;-72
2023/04/11 05:35:50;;;;;;;15.00;8.45;;;10.30;53.80;;;;;;5052546;28;20017;-72
2023/04/11 05:38:16;;;;;;;11.05;8.55;;;10.30;53.60;;;;;;5051121;28;20060;-71
2023/04/11 05:40:42;;;;;;;11.60;8.77;;;10.30;53.50;;;;;;5051501;28;20029;-71
2023/04/11 05:43:12;;;;;;;14.10;9.23;;;10.30;53.70;;;;;;5051343;28;20037;-72
2023/04/11 05:45:38;;;;;;;13.50;8.35;;;10.40;53.80;;;;;;5052233;28;20024;-71
2023/04/11 05:48:06;;;;;;;14.20;9.18;;;10.50;53.80;;;;;;5054841;28;20032;-72
2023/04/11 05:50:35;;;;;;;13.38;9.20;;;10.60;53.60;;;;;;5055917;28;20036;-72
2023/04/11 05:53:02;;;;;;;14.27;9.32;;;10.70;53.40;;;;;;5056283;28;20475;-72
2023/04/11 05:55:28;;;;;;;17.15;9.60;;;10.70;53.20;;;;;;5058215;28;20079;-72
2023/04/11 05:57:54;;;;;;;13.52;9.02;;;10.70;53.10;;;;;;5035484;28;20777;-72
2023/04/11 06:00:20;;;;;;;13.02;8.43;;;10.70;53.20;;;;;;5055099;28;20021;-72
2023/04/11 06:02:47;;;;;;;15.50;9.65;;;10.80;53.20;;;;;;5053318;28;20450;-71
2023/04/11 06:05:15;;;;;;;15.57;9.77;;;10.90;53.00;;;;;;5054832;28;20021;-73
2023/04/11 06:07:41;;;;;;;13.23;9.00;;;10.90;52.90;;;;;;5054780;28;20059;-71
2023/04/11 06:10:08;;;;;;;11.95;8.63;;;11.00;52.70;;;;;;5036902;28;20037;-71
2023/04/11 06:12:34;;;;;;;13.43;9.10;;;11.00;52.50;;;;;;5054989;28;20521;-72
2023/04/11 06:15:00;;;;;;;12.02;9.18;;;11.20;52.60;;;;;;5054947;28;20048;-72
2023/04/11 06:17:26;;;;;;;19.60;9.57;;;11.20;52.40;;;;;;5054873;28;20021;-71
2023/04/11 06:19:51;;;;;;;11.45;8.27;;;11.30;52.20;;;;;;5054476;28;20505;-72
2023/04/11 06:22:17;;;;;;;13.23;9.88;;;11.20;51.90;;;;;;5054772;28;20482;-72
2023/04/11 06:24:45;;;;;;;12.63;9.07;;;11.00;52.00;;;;;;5054574;28;20108;-72
2023/04/11 06:27:12;;;;;;;16.05;9.25;;;10.90;52.00;;;;;;5054888;28;20021;-72
2023/04/11 06:29:38;;;;;;;16.45;9.93;;;10.90;52.50;;;;;;5054712;28;20041;-72
2023/04/11 06:32:05;;;;;;;15.52;10.23;;;11.00;52.10;;;;;;5054649;28;20174;-73
2023/04/11 06:34:31;;;;;;;15.57;10.30;;;11.00;52.40;;;;;;5054999;28;20025;-72
2023/04/11 06:36:56;;;;;;;13.45;9.77;;;11.00;52.40;;;;;;5036502;28;20402;-72
2023/04/11 06:39:22;;;;;;;14.52;9.68;;;10.80;52.20;;;;;;5054514;28;20107;-73
2023/04/11 06:41:48;;;;;;;20.55;10.10;;;10.90;52.40;;;;;;5054488;28;20478;-72
2023/04/11 06:44:14;;;;;;;15.48;10.40;;;11.00;52.40;;;;;;5036374;28;20443;-73
2023/04/11 06:46:40;;;;;;;15.90;10.23;;;11.10;52.40;;;;;;5054103;28;20017;-71
2023/04/11 06:49:09;;;;;;;13.00;9.23;;;11.30;52.30;;;;;;5054780;28;20040;-72
2023/04/11 06:51:37;;;;;;;16.20;10.35;;;11.40;51.90;;;;;;5036148;28;20048;-73
2023/04/11 06:54:05;;;;;;;12.15;9.00;;;11.50;51.70;;;;;;5054194;28;20455;-71
2023/04/11 06:56:31;;;;;;;15.23;9.27;;;11.40;51.60;;;;;;5054278;28;20049;-72
2023/04/11 06:58:57;;;;;;;17.65;9.68;;;11.40;51.60;;;;;;5036165;28;20067;-72
2023/04/11 07:01:29;;;;;;;13.32;8.98;;;11.40;51.60;;;;;;5053908;28;20029;-71
2023/04/11 07:03:55;;;;;;;16.23;8.70;;;11.40;51.60;;;;;;5054202;28;20379;-72
2023/04/11 07:06:22;;;;;;;27.25;9.63;;;11.30;51.60;;;;;;5054005;28;20036;-74
2023/04/11 07:08:51;;;;;;;17.70;9.25;;;11.30;51.60;;;;;;5036161;28;20395;-72
2023/04/11 07:11:16;;;;;;;13.15;8.90;;;11.40;51.90;;;;;;5053599;28;20032;-72
2023/04/11 07:13:42;;;;;;;11.48;8.50;;;11.50;51.50;;;;;;5053376;28;20483;-71
2023/04/11 07:16:08;;;;;;;13.75;8.95;;;11.50;51.40;;;;;;5053655;28;20040;-73
2023/04/11 07:18:34;;;;;;;14.95;8.35;;;11.40;51.10;;;;;;5053583;28;20025;-72
2023/04/11 07:21:00;;;;;;;14.50;8.80;;;11.50;51.10;;;;;;5053584;28;20039;-71
2023/04/11 07:23:26;;;;;;;13.25;8.65;;;11.60;51.10;;;;;;5053537;28;20021;-72
2023/04/11 07:25:53;;;;;;;16.20;9.60;;;11.70;50.90;;;;;;5053329;28;20021;-73
2023/04/11 07:28:20;;;;;;;12.10;8.43;;;11.80;50.40;;;;;;5054131;28;20029;-72
2023/04/11 07:30:46;;;;;;;12.55;8.73;;;11.80;50.20;;;;;;5053337;28;20478;-71
2023/04/11 07:33:12;;;;;;;11.52;8.73;;;12.00;50.30;;;;;;5053356;28;20017;-72
2023/04/11 07:35:38;;;;;;;14.02;8.70;;;12.10;49.90;;;;;;5053201;28;20033;-73
2023/04/11 07:38:03;;;;;;;11.95;8.18;;;12.20;49.00;;;;;;5053342;28;20119;-73
2023/04/11 07:40:30;;;;;;;16.00;9.02;;;12.40;49.00;;;;;;5053274;28;20054;-73
2023/04/11 07:42:57;;;;;;;15.18;8.93;;;12.40;48.70;;;;;;5053194;28;20104;-72
2023/04/11 07:45:22;;;;;;;14.63;8.73;;;12.40;48.50;;;;;;5053332;28;20104;-72
2023/04/11 07:47:48;;;;;;;17.90;9.35;;;12.60;48.50;;;;;;5053014;28;20411;-72
2023/04/11 07:50:14;;;;;;;13.25;8.75;;;12.80;47.90;;;;;;5053053;28;20029;-72
2023/04/11 07:52:39;;;;;;;12.70;8.32;;;12.90;47.40;;;;;;5052978;28;20041;-73
2023/04/11 07:55:05;;;;;;;12.05;8.38;;;12.90;47.10;;;;;;5052733;28;20021;-72
2023/04/11 07:57:31;;;;;;;19.38;8.98;;;12.90;47.50;;;;;;5052931;28;20029;-72
2023/04/11 08:00:00;;;;;;;12.15;7.93;;;12.90;47.50;;;;;;5053104;28;20048;-72
2023/04/11 08:02:26;;;;;;;14.95;9.50;;;13.00;47.20;;;;;;5053066;28;20025;-72
2023/04/11 08:04:52;;;;;;;14.82;8.90;;;13.10;47.50;;;;;;5052929;28;20032;-72
2023/04/11 08:07:17;;;;;;;16.90;9.10;;;13.20;47.10;;;;;;5052679;28;20029;-74
2023/04/11 08:09:43;;;;;;;15.68;9.45;;;13.40;46.70;;;;;;5052542;28;20406;-72
2023/04/11 08:12:09;;;;;;;13.95;8.73;;;13.50;46.20;;;;;;5034995;28;20051;-74
2023/04/11 08:14:35;;;;;;;14.65;8.43;;;13.60;46.10;;;;;;5052651;28;20100;-73
2023/04/11 08:17:01;;;;;;;18.45;8.57;;;13.70;46.30;;;;;;5052609;28;20435;-73
2023/04/11 08:19:27;;;;;;;10.20;7.55;;;13.80;45.70;;;;;;5053057;28;20047;-72
2023/04/11 08:21:53;;;;;;;18.38;8.80;;;13.90;45.50;;;;;;5052348;28;20048;-72
2023/04/11 08:24:19;;;;;;;13.05;8.18;;;13.90;45.60;;;;;;5051867;28;20025;-74
2023/04/11 08:26:45;;;;;;;11.13;7.47;;;14.10;45.60;;;;;;5052451;28;20112;-72
2023/04/11 08:29:11;;;;;;;12.45;7.35;;;14.10;45.60;;;;;;5034488;28;20078;-74
2023/04/11 08:31:44;;;;;;;12.95;8.32;;;14.20;45.30;;;;;;5052468;28;20467;-74
2023/04/11 08:34:10;;;;;;;12.30;8.68;;;14.30;46.50;;;;;;5052323;28;20025;-72
2023/04/11 08:36:36;;;;;;;12.95;8.73;;;14.30;45.30;;;;;;5034343;28;20486;-73
2023/04/11 08:39:02;;;;;;;15.00;7.88;;;14.30;45.40;;;;;;5051699;28;20052;-72
2023/04/11 08:41:29;;;;;;;12.95;8.60;;;14.30;45.20;;;;;;5051854;28;20108;-72
2023/04/11 08:43:56;;;;;;;15.52;9.93;;;14.30;45.10;;;;;;5052322;28;20045;-72
2023/04/11 08:46:21;;;;;;;12.65;8.57;;;14.30;45.20;;;;;;5052044;28;20104;-72
2023/04/11 08:48:47;;;;;;;14.25;8.70;;;14.40;45.10;;;;;;5051809;28;20120;-72
2023/04/11 08:51:21;;;;;;;15.77;10.07;;;14.60;45.00;;;;;;5051775;28;20028;-74
2023/04/11 08:53:46;;;;;;;14.52;9.25;;;14.70;44.80;;;;;;5051675;28;20032;-73
2023/04/11 08:56:18;;;;;;;12.18;8.55;;;14.80;44.30;;;;;;5051908;28;20083;-73
2023/04/11 08:58:44;;;;;;;15.20;9.20;;;15.00;44.70;;;;;;5051825;28;20079;-73
2023/04/11 09:01:42;;;;;;;12.77;9.10;;;15.20;44.40;;;;;;5033783;28;20048;-72
2023/04/11 09:04:10;;;;;;;14.27;8.95;;;15.40;44.10;;;;;;4997340;28;20037;-73
2023/04/11 09:06:38;;;;;;;12.32;7.97;;;15.60;44.10;;;;;;5051593;28;20174;-73
2023/04/11 09:09:07;;;;;;;13.30;7.45;;;15.70;43.50;;;;;;5051650;28;20501;-73
2023/04/11 09:11:54;;;;;;;10.85;6.85;;;15.80;42.90;;;;;;5052002;28;20429;-75
2023/04/11 09:14:24;;;;;;;12.82;7.22;;;15.90;42.40;;;;;;5051804;28;20021;-74
2023/04/11 09:17:15;;;;;;;26.77;8.43;;;16.00;42.10;;;;;;5051709;28;20025;-74
2023/04/11 09:19:41;;;;;;;9.95;7.07;;;16.00;41.80;;;;;;5051647;28;20101;-71
2023/04/11 09:22:07;;;;;;;11.48;7.22;;;16.10;42.00;;;;;;5051925;28;20026;-74
2023/04/11 09:24:34;;;;;;;9.25;6.47;;;16.20;41.40;;;;;;5052024;28;20021;-73
2023/04/11 09:27:15;;;;;;;10.77;6.47;;;16.20;41.00;;;;;;5051778;28;20021;-72
2023/04/11 09:29:45;;;;;;;10.00;6.80;;;16.20;39.40;;;;;;5051734;28;20041;-73
2023/04/11 09:32:33;;;;;;;14.07;7.07;;;16.30;40.70;;;;;;5051771;28;20029;-73
2023/04/11 09:35:08;;;;;;;11.00;6.78;;;16.30;39.30;;;;;;5052438;28;20100;-73
2023/04/11 09:37:56;;;;;;;12.32;6.40;;;16.40;40.70;;;;;;5053670;28;20100;-72
2023/04/11 09:40:24;;;;;;;8.80;6.22;;;16.40;39.00;;;;;;5055494;28;20039;-72
2023/04/11 09:42:59;;;;;;;13.13;6.15;;;16.30;40.10;;;;;;5055233;28;20143;-74
2023/04/11 09:45:26;;;;;;;9.52;5.65;;;16.20;40.20;;;;;;5037123;28;20365;-73
2023/04/11 09:47:55;;;;;;;11.00;6.00;;;16.20;40.00;;;;;;5055298;28;20028;-73
2023/04/11 09:50:22;;;;;;;8.90;5.72;;;16.20;39.80;;;;;;5055749;28;20037;-73
2023/04/11 09:52:48;;;;;;;10.70;5.68;;;16.20;40.60;;;;;;5055801;28;20025;-73
2023/04/11 09:55:17;;;;;;;10.48;5.88;;;16.30;39.80;;;;;;5055345;28;20506;-72
2023/04/11 09:57:48;;;;;;;10.18;5.47;;;16.40;39.50;;;;;;5037034;28;20024;-72
2023/04/11 10:00:17;;;;;;;8.65;5.65;;;16.50;38.70;;;;;;5055058;28;20371;-72
2023/04/11 10:02:44;;;;;;;13.75;5.85;;;16.60;38.60;;;;;;5054430;28;20021;-72
2023/04/11 10:05:12;;;;;;;9.13;4.65;;;16.70;39.00;;;;;;5054865;28;20124;-73
2023/04/11 10:07:57;;;;;;;7.68;4.72;;;17.00;39.30;;;;;;5054564;28;20056;-72
2023/04/11 10:10:23;;;;;;;8.70;4.90;;;17.20;37.50;;;;;;5054776;28;20065;-72
2023/04/11 10:12:50;;;;;;;9.93;5.13;;;17.40;38.30;;;;;;5054600;28;20025;-73
2023/04/11 10:15:17;;;;;;;7.88;5.22;;;17.40;38.60;;;;;;5054663;28;20037;-72
2023/04/11 10:18:09;;;;;;;9.95;5.50;;;17.60;38.70;;;;;;5054669;28;20104;-72
2023/04/11 10:20:49;;;;;;;7.10;5.10;;;17.70;37.70;;;;;;5036573;28;20072;-72
2023/04/11 10:23:15;;;;;;;8.18;4.28;;;17.80;37.90;;;;;;5036323;28;20039;-72
2023/04/11 10:25:49;;;;;;;9.07;4.90;;;17.90;39.30;;;;;;5054450;28;20025;-72
2023/04/11 10:28:34;;;;;;;6.82;4.82;;;17.90;39.50;;;;;;5054373;28;20451;-72
2023/04/11 10:31:07;;;;;;;9.23;4.70;;;17.80;39.40;;;;;;5054382;28;20040;-72
2023/04/11 10:33:34;;;;;;;;;;;17.70;39.80;;;;;;5054741;28;20029;-73
2023/04/11 10:36:12;;;;;;;7.10;4.63;;;17.70;40.30;;;;;;5054224;28;20431;-73
2023/04/11 10:38:47;;;;;;;7.75;3.97;;;17.70;39.70;;;;;;5054187;28;20072;-73
2023/04/11 10:41:24;;;;;;;6.20;4.00;;;17.70;38.60;;;;;;5054304;28;20025;-72
2023/04/11 10:43:51;;;;;;;6.00;3.80;;;17.70;39.60;;;;;;5054087;28;20475;-73
2023/04/11 10:46:24;;;;;;;6.15;3.28;;;17.70;39.80;;;;;;5054016;28;20044;-71
2023/04/11 10:49:00;;;;;;;;;;;17.80;37.90;;;;;;5054085;28;20529;-73
2023/04/11 10:51:28;;;;;;;5.70;3.55;;;17.90;37.20;;;;;;5054219;28;19905;-72
2023/04/11 10:53:58;;;;;;;5.22;3.40;;;18.00;39.90;;;;;;5035768;28;20025;-71
2023/04/11 10:56:41;;;;;;;7.20;4.20;;;18.00;39.60;;;;;;5054094;28;20332;-72
2023/04/11 10:59:29;;;;;;;7.85;4.40;;;18.20;39.70;;;;;;5054361;28;20072;-72
2023/04/11 11:01:56;;;;;;;6.43;3.50;;;18.30;38.20;;;;;;5053723;28;20021;-72
2023/04/11 11:04:31;;;;;;;5.10;3.42;;;18.30;39.90;;;;;;5053668;28;20037;-73
2023/04/11 11:07:04;;;;;;;6.45;3.38;;;18.40;40.00;;;;;;5053843;28;20059;-73
2023/04/11 11:09:30;;;;;;;5.43;3.30;;;18.50;39.90;;;;;;5053778;28;20072;-71
2023/04/11 11:12:10;;;;;;;5.47;3.50;;;18.50;39.80;;;;;;5053673;28;20083;-71
2023/04/11 11:14:36;;;;;;;6.47;3.72;;;18.60;37.90;;;;;;5053388;28;20021;-72
2023/04/11 11:17:02;;;;;;;5.40;3.40;;;18.60;39.40;;;;;;5053569;28;20064;-72
2023/04/11 11:19:29;;;;;;;6.38;2.88;;;18.50;39.70;;;;;;5053808;28;20025;-72
2023/04/11 11:21:58;;;;;;;8.00;3.88;;;18.60;40.00;;;;;;5053652;28;20032;-73
2023/04/11 11:24:25;;;;;;;6.32;3.80;;;18.70;39.60;;;;;;5053933;28;20029;-71
2023/04/11 11:26:54;;;;;;;4.93;3.28;;;18.80;40.10;;;;;;5053986;28;20021;-72
2023/04/11 11:29:38;;;;;;;7.30;3.83;;;18.90;40.50;;;;;;5053789;28;20024;-73
2023/04/11 11:32:05;;;;;;;5.55;3.67;;;19.00;38.50;;;;;;5035951;28;20107;-72
2023/04/11 11:34:33;;;;;;;4.60;3.05;;;19.00;39.80;;;;;;5054292;28;20032;-72
2023/04/11 11:37:03;;;;;;;6.40;3.55;;;19.00;39.60;;;;;;5053900;28;20417;-74
2023/04/11 11:39:30;;;;;;;5.53;3.30;;;19.10;39.90;;;;;;5053702;28;20065;-72
2023/04/11 11:41:57;;;;;;;7.00;3.88;;;19.20;40.10;;;;;;5053289;28;20052;-73
2023/04/11 11:44:27;;;;;;;6.50;3.70;;;19.30;40.20;;;;;;5053688;28;20072;-73
2023/04/11 11:47:07;;;;;;;6.82;3.28;;;19.50;38.50;;;;;;5053387;28;20100;-72
2023/04/11 11:49:53;;;;;;;6.15;3.20;;;19.70;40.00;;;;;;5035603;28;20084;-73
2023/04/11 11:52:39;;;;;;;5.20;3.50;;;19.80;40.70;;;;;;5054084;28;20032;-71
2023/04/11 11:55:08;;;;;;;6.45;4.05;;;19.90;38.10;;;;;;5053828;28;20021;-72
2023/04/11 11:57:46;;;;;;;5.20;3.30;;;19.90;39.60;;;;;;5053524;28;20040;-72
2023/04/11 12:00:13;;;;;;;5.63;3.35;;;20.00;37.90;;;;;;5052509;28;20509;-72
2023/04/11 12:02:42;;;;;;;6.20;3.58;;;19.90;39.30;;;;;;5052803;28;20032;-73
2023/04/11 12:05:10;;;;;;;5.80;3.50;;;20.00;38.30;;;;;;5053164;28;20028;-74
2023/04/11 12:07:37;;;;;;;6.53;3.42;;;20.20;39.60;;;;;;5034847;28;20098;-74
2023/04/11 12:10:07;;;;;;;5.93;3.53;;;20.30;38.90;;;;;;5052561;28;20365;-73
2023/04/11 12:12:40;;;;;;;7.90;3.60;;;20.50;39.00;;;;;;5053097;28;20029;-73
2023/04/11 12:15:13;;;;;;;5.55;3.38;;;20.60;39.10;;;;;;5052856;28;20532;-72
2023/04/11 12:17:39;;;;;;;5.00;3.10;;;20.80;37.60;;;;;;5052659;28;20021;-72
2023/04/11 12:20:14;;;;;;;5.63;3.15;;;20.70;38.40;;;;;;5052640;28;20025;-72
2023/04/11 12:22:40;;;;;;;4.72;3.10;;;20.60;38.00;;;;;;5052515;28;20025;-73
2023/04/11 12:25:11;;;;;;;6.25;3.10;;;20.70;38.20;;;;;;5052465;28;20107;-73
2023/04/11 12:27:39;;;;;;;6.30;3.60;;;20.60;37.90;;;;;;5052416;28;20020;-72
2023/04/11 12:30:05;;;;;;;6.50;3.13;;;20.60;38.40;;;;;;5052646;28;20029;-72
2023/04/11 12:32:32;;;;;;;6.30;3.20;;;20.80;38.10;;;;;;5052820;28;20029;-73
2023/04/11 12:35:02;;;;;;;5.38;3.30;;;20.80;38.50;;;;;;5052316;28;20479;-74
2023/04/11 12:37:28;;;;;;;4.85;3.08;;;20.80;38.30;;;;;;5051997;28;20027;-74
2023/04/11 12:39:53;;;;;;;5.60;3.13;;;20.90;38.40;;;;;;5052254;28;20115;-71
2023/04/11 12:42:19;;;;;;;4.88;3.15;;;21.00;38.20;;;;;;5051975;28;20025;-73
2023/04/11 12:44:46;;;;;;;5.20;3.00;;;21.00;38.50;;;;;;5052111;28;20025;-72